Time;durP1;ratioP1;P1;durP2;ratioP2;P2;SDS_P1;SDS_P2;PMS_P1;PMS_P2;Temp;Humidity;BMP_temperature;BMP_pressure;BME280_temperature;BME280_humidity;BME280_pressure;Samples;Min_cycle;Max_cycle;Signal;HPM_P1;HPM_P2
2024/03/16 00:00:28;;;;;;;15.37;13.77;;;12.00;99.90;;;;;;5120402;28;20454;-80
2024/03/16 00:02:57;;;;;;;15.40;13.20;;;12.00;99.90;;;;;;5104860;28;20457;-81
2024/03/16 00:05:25;;;;;;;16.23;13.43;;;12.00;99.90;;;;;;5105517;28;22429;-81
2024/03/16 00:07:54;;;;;;;15.87;11.67;;;12.10;99.90;;;;;;5121303;28;20463;-81
2024/03/16 00:10:22;;;;;;;19.53;13.33;;;12.10;99.90;;;;;;5104082;28;20466;-81
2024/03/16 00:12:50;;;;;;;14.07;12.40;;;12.00;99.90;;;;;;5103805;28;20920;-79
2024/03/16 00:15:19;;;;;;;21.73;13.13;;;12.10;99.90;;;;;;5103815;28;20450;-80
2024/03/16 00:17:47;;;;;;;18.27;11.37;;;12.10;99.90;;;;;;5121571;28;20488;-81
2024/03/16 00:20:17;;;;;;;18.20;12.60;;;12.00;99.90;;;;;;5103181;28;20467;-80
2024/03/16 00:22:46;;;;;;;15.70;11.37;;;12.10;99.90;;;;;;5103620;28;20474;-80
2024/03/16 00:25:15;;;;;;;12.97;11.30;;;12.10;99.90;;;;;;5103275;28;20865;-80
2024/03/16 00:27:43;;;;;;;15.33;11.70;;;12.10;99.90;;;;;;5120064;28;20790;-80
2024/03/16 00:30:12;;;;;;;16.07;11.50;;;12.10;99.90;;;;;;5102821;28;20474;-80
2024/03/16 00:32:40;;;;;;;17.10;11.27;;;12.10;99.90;;;;;;5103126;28;20445;-80
2024/03/16 00:35:09;;;;;;;15.80;10.80;;;12.10;99.90;;;;;;5102934;28;20465;-80
2024/03/16 00:37:38;;;;;;;15.70;11.63;;;12.10;99.90;;;;;;5102239;28;20497;-79
2024/03/16 00:40:07;;;;;;;17.13;10.57;;;12.10;99.90;;;;;;5102061;28;20486;-81
2024/03/16 00:42:36;;;;;;;16.20;11.10;;;12.10;99.90;;;;;;5102741;28;20435;-79
2024/03/16 00:45:05;;;;;;;14.03;10.53;;;12.10;99.90;;;;;;5102723;28;20434;-80
2024/03/16 00:47:33;;;;;;;12.43;10.70;;;12.10;99.90;;;;;;5104808;27;20478;-79
2024/03/16 00:50:02;;;;;;;15.57;10.40;;;12.10;99.90;;;;;;5105816;27;20459;-79
2024/03/16 00:52:30;;;;;;;12.03;10.17;;;12.10;99.90;;;;;;5106119;27;20496;-81
2024/03/16 00:54:58;;;;;;;15.40;10.30;;;12.10;99.90;;;;;;5106241;27;20442;-79
2024/03/16 00:57:27;;;;;;;20.07;11.13;;;12.10;99.90;;;;;;5123222;27;20851;-80
2024/03/16 00:59:55;;;;;;;12.47;11.17;;;12.10;99.90;;;;;;5106411;27;20471;-80
2024/03/16 01:02:24;;;;;;;18.03;10.73;;;12.10;99.90;;;;;;5106473;27;20803;-82
2024/03/16 01:04:52;;;;;;;15.33;11.33;;;12.10;99.90;;;;;;5105899;27;20446;-80
2024/03/16 01:07:20;;;;;;;15.50;10.80;;;12.10;99.90;;;;;;5122087;27;20470;-80
2024/03/16 01:09:49;;;;;;;16.67;10.23;;;12.10;99.90;;;;;;5122561;27;20812;-78
2024/03/16 01:12:17;;;;;;;14.70;9.80;;;12.10;99.90;;;;;;5105458;27;20566;-78
2024/03/16 01:14:45;;;;;;;16.13;10.30;;;12.10;99.90;;;;;;5105478;27;20470;-79
2024/03/16 01:17:15;;;;;;;13.47;10.47;;;12.10;99.90;;;;;;5122287;27;20466;-81
2024/03/16 01:19:44;;;;;;;14.23;9.93;;;12.10;99.90;;;;;;5105437;27;20920;-79
2024/03/16 01:22:12;;;;;;;13.27;10.20;;;12.10;99.90;;;;;;5108013;27;20438;-80
2024/03/16 01:24:40;;;;;;;12.80;9.57;;;12.10;99.90;;;;;;5106692;27;20495;-81
2024/03/16 01:27:09;;;;;;;15.57;11.33;;;12.10;99.90;;;;;;5124026;27;20489;-81
2024/03/16 01:29:37;;;;;;;14.30;10.50;;;12.10;99.90;;;;;;5107148;27;20539;-80
2024/03/16 01:32:08;;;;;;;14.40;11.07;;;12.10;99.90;;;;;;5123330;27;20439;-79
2024/03/16 01:34:37;;;;;;;16.50;12.00;;;12.10;99.90;;;;;;5107554;27;20446;-80
2024/03/16 01:37:05;;;;;;;17.33;10.80;;;12.10;99.90;;;;;;5123706;27;20430;-81
2024/03/16 01:39:34;;;;;;;15.30;11.17;;;12.10;99.90;;;;;;5123503;27;20450;-79
2024/03/16 01:42:03;;;;;;;14.60;10.90;;;12.10;99.90;;;;;;5105920;27;20893;-79
2024/03/16 01:44:31;;;;;;;13.50;11.37;;;12.10;99.90;;;;;;5105987;27;20457;-79
2024/03/16 01:47:00;;;;;;;14.03;10.40;;;12.10;99.90;;;;;;5122737;27;20470;-79
2024/03/16 01:49:28;;;;;;;11.97;10.67;;;12.10;99.90;;;;;;5122479;27;20478;-78
2024/03/16 01:51:56;;;;;;;15.30;10.30;;;12.10;99.90;;;;;;5105763;27;20443;-78
2024/03/16 01:54:25;;;;;;;16.40;10.50;;;12.10;99.90;;;;;;5105701;27;20439;-79
2024/03/16 01:56:53;;;;;;;17.10;11.57;;;12.10;99.90;;;;;;5122718;27;20499;-78
2024/03/16 01:59:21;;;;;;;18.83;10.63;;;12.10;99.90;;;;;;5122818;27;20461;-80
2024/03/16 02:01:50;;;;;;;14.33;10.10;;;12.10;99.90;;;;;;5105617;27;20481;-81
2024/03/16 02:04:18;;;;;;;14.33;10.20;;;12.10;99.90;;;;;;5105592;27;20466;-81
2024/03/16 02:06:49;;;;;;;19.30;10.27;;;12.10;99.90;;;;;;5121991;27;20472;-79
2024/03/16 02:09:18;;;;;;;15.93;10.27;;;12.10;99.90;;;;;;5105676;27;20478;-79
2024/03/16 02:11:49;;;;;;;15.70;10.53;;;12.10;99.90;;;;;;5122266;27;20442;-80
2024/03/16 02:14:18;;;;;;;16.80;10.30;;;12.10;99.90;;;;;;5106093;27;20442;-79
2024/03/16 02:16:47;;;;;;;13.40;9.67;;;12.10;99.90;;;;;;5104331;27;20443;-80
2024/03/16 02:19:16;;;;;;;16.60;9.83;;;12.10;99.90;;;;;;5122245;27;20460;-80
2024/03/16 02:21:44;;;;;;;15.90;10.00;;;12.10;99.90;;;;;;5124053;27;20427;-80
2024/03/16 02:24:13;;;;;;;18.03;10.63;;;12.10;99.90;;;;;;5106194;27;20963;-81
2024/03/16 02:26:42;;;;;;;13.27;10.00;;;12.10;99.90;;;;;;5122599;27;20966;-79
2024/03/16 02:29:11;;;;;;;13.23;9.53;;;12.10;99.90;;;;;;5122682;27;20907;-79
2024/03/16 02:31:39;;;;;;;15.67;10.80;;;12.10;99.90;;;;;;5105593;27;20449;-79
2024/03/16 02:34:08;;;;;;;15.63;10.47;;;12.10;99.90;;;;;;5104965;27;20446;-79
2024/03/16 02:36:36;;;;;;;13.33;9.30;;;12.10;99.90;;;;;;5104729;27;20443;-81
2024/03/16 02:39:05;;;;;;;15.00;9.87;;;12.10;99.90;;;;;;5105589;27;20446;-80
2024/03/16 02:41:33;;;;;;;14.97;9.57;;;12.10;99.90;;;;;;5121958;27;20996;-80
2024/03/16 02:44:01;;;;;;;15.23;9.40;;;12.00;99.90;;;;;;5104139;27;20439;-79
2024/03/16 02:46:30;;;;;;;15.47;9.90;;;12.10;99.90;;;;;;5104212;27;20474;-78
2024/03/16 02:48:58;;;;;;;14.50;8.80;;;12.10;99.90;;;;;;5104332;27;20439;-79
2024/03/16 02:51:27;;;;;;;13.70;8.60;;;12.10;99.90;;;;;;5121591;27;21021;-79
2024/03/16 02:53:56;;;;;;;18.80;9.47;;;12.00;99.90;;;;;;5120673;27;20922;-79
2024/03/16 02:56:23;;;;;;;12.43;8.63;;;12.00;99.90;;;;;;5104300;27;20446;-81
2024/03/16 02:58:52;;;;;;;17.43;8.70;;;12.00;99.90;;;;;;5121182;27;20987;-79
2024/03/16 03:01:20;;;;;;;13.50;8.67;;;12.00;99.90;;;;;;5104122;27;20489;-80
2024/03/16 03:03:49;;;;;;;19.60;9.30;;;12.00;99.90;;;;;;5121045;27;20442;-80
2024/03/16 03:06:17;;;;;;;15.47;7.60;;;12.00;99.90;;;;;;5104075;27;20442;-80
2024/03/16 03:08:47;;;;;;;16.07;8.50;;;12.00;99.90;;;;;;5103880;27;20489;-80
2024/03/16 03:11:16;;;;;;;17.30;8.77;;;12.00;99.90;;;;;;5104245;27;20975;-80
2024/03/16 03:13:45;;;;;;;13.50;7.60;;;12.00;99.90;;;;;;5103628;27;20454;-80
2024/03/16 03:16:19;;;;;;;11.27;7.80;;;12.00;99.90;;;;;;5104050;27;20446;-78
2024/03/16 03:18:47;;;;;;;15.40;8.10;;;12.00;99.90;;;;;;5104242;27;20438;-78
2024/03/16 03:21:15;;;;;;;14.53;8.50;;;12.00;99.90;;;;;;5103460;27;20473;-79
2024/03/16 03:23:44;;;;;;;13.17;7.47;;;12.00;99.90;;;;;;5103346;27;20458;-79
2024/03/16 03:26:12;;;;;;;12.40;6.83;;;12.00;99.90;;;;;;5103259;27;20477;-79
2024/03/16 03:28:40;;;;;;;12.23;7.20;;;11.90;99.90;;;;;;5102902;27;20470;-80
2024/03/16 03:31:09;;;;;;;16.00;8.50;;;11.90;99.90;;;;;;5119527;27;20454;-78
2024/03/16 03:33:38;;;;;;;16.30;7.80;;;11.90;99.90;;;;;;5102993;27;20950;-80
2024/03/16 03:36:07;;;;;;;13.53;7.90;;;11.90;99.90;;;;;;5103275;27;20450;-78
2024/03/16 03:38:35;;;;;;;13.50;8.40;;;11.90;99.90;;;;;;5103390;27;20430;-80
2024/03/16 03:41:04;;;;;;;12.77;8.20;;;11.80;99.90;;;;;;5102681;27;20462;-79
2024/03/16 03:43:33;;;;;;;14.10;7.50;;;11.80;99.90;;;;;;5120401;27;20479;-78
2024/03/16 03:46:01;;;;;;;16.97;7.67;;;11.80;99.90;;;;;;5103490;27;20483;-79
2024/03/16 03:48:43;;;;;;;16.93;8.73;;;11.80;99.90;;;;;;5102438;27;20493;-78
2024/03/16 03:51:12;;;;;;;15.40;7.53;;;11.80;99.90;;;;;;5106755;27;20482;-79
2024/03/16 03:53:41;;;;;;;13.27;7.83;;;11.70;99.90;;;;;;5103125;27;20981;-78
2024/03/16 03:56:09;;;;;;;17.17;8.80;;;11.70;99.90;;;;;;5119662;27;20430;-79
2024/03/16 03:58:38;;;;;;;18.00;7.93;;;11.70;99.90;;;;;;5102631;27;20491;-79
2024/03/16 04:01:06;;;;;;;14.33;7.40;;;11.70;99.90;;;;;;5119286;28;20446;-78
2024/03/16 04:03:35;;;;;;;16.40;8.30;;;11.70;99.90;;;;;;5103374;28;20443;-79
2024/03/16 04:06:04;;;;;;;16.37;8.33;;;11.70;99.90;;;;;;5102283;28;20446;-79
2024/03/16 04:08:32;;;;;;;14.17;7.50;;;11.70;99.90;;;;;;5102897;28;20489;-79
2024/03/16 04:11:04;;;;;;;14.97;9.17;;;11.70;99.90;;;;;;5102684;28;20497;-79
2024/03/16 04:13:34;;;;;;;12.17;8.83;;;11.60;99.90;;;;;;5103712;28;20470;-79
2024/03/16 04:16:02;;;;;;;16.20;9.20;;;11.60;99.90;;;;;;5119718;28;20434;-80
2024/03/16 04:18:31;;;;;;;14.23;9.13;;;11.60;99.90;;;;;;5102936;28;20438;-79
2024/03/16 04:21:01;;;;;;;18.80;9.33;;;11.60;99.90;;;;;;5104793;27;20465;-79
2024/03/16 04:23:29;;;;;;;17.90;10.33;;;11.60;99.90;;;;;;5109290;27;20422;-80
2024/03/16 04:25:57;;;;;;;17.40;10.50;;;11.50;99.90;;;;;;5108401;27;20469;-79
2024/03/16 04:28:26;;;;;;;18.07;11.13;;;11.50;99.90;;;;;;5108208;27;20573;-79
2024/03/16 04:30:54;;;;;;;16.83;10.30;;;11.50;99.90;;;;;;5125218;27;20504;-79
2024/03/16 04:33:22;;;;;;;16.93;10.37;;;11.50;99.90;;;;;;5108043;27;20541;-79
2024/03/16 04:35:51;;;;;;;16.90;10.10;;;11.40;99.90;;;;;;5108168;27;20434;-79
2024/03/16 04:38:19;;;;;;;16.50;9.83;;;11.40;99.90;;;;;;5111016;27;20447;-79
2024/03/16 04:40:47;;;;;;;18.27;11.30;;;11.40;99.90;;;;;;5127045;27;20959;-79
2024/03/16 04:43:16;;;;;;;14.10;11.70;;;11.40;99.90;;;;;;5134567;27;20438;-79
2024/03/16 04:45:47;;;;;;;16.00;12.17;;;11.40;99.90;;;;;;5112787;27;20442;-79
2024/03/16 04:48:16;;;;;;;13.93;10.50;;;11.30;99.90;;;;;;5107702;27;20605;-80
2024/03/16 04:50:44;;;;;;;14.77;9.77;;;11.30;99.90;;;;;;5107461;27;20462;-79
2024/03/16 04:53:16;;;;;;;8.60;7.17;;;11.30;99.90;;;;;;5108115;27;20431;-79
2024/03/16 04:55:44;;;;;;;7.53;6.83;;;11.30;99.90;;;;;;5106836;27;20495;-79
2024/03/16 04:58:12;;;;;;;5.07;4.57;;;11.30;99.90;;;;;;5106257;27;20499;-79
2024/03/16 05:00:41;;;;;;;4.83;3.73;;;11.20;99.90;;;;;;5123347;27;20461;-79
2024/03/16 05:03:09;;;;;;;4.80;4.27;;;11.10;99.90;;;;;;5106791;27;20439;-78
2024/03/16 05:05:38;;;;;;;3.30;3.00;;;10.90;99.90;;;;;;5123058;27;20434;-79
2024/03/16 05:08:07;;;;;;;5.63;3.40;;;10.80;99.90;;;;;;5106307;27;20568;-80
2024/03/16 05:10:35;;;;;;;4.57;3.30;;;10.70;99.90;;;;;;5106893;27;20850;-78
2024/03/16 05:13:04;;;;;;;3.50;3.13;;;10.60;99.90;;;;;;5106205;27;20541;-80
2024/03/16 05:15:33;;;;;;;4.27;3.50;;;10.60;99.90;;;;;;5106182;27;20876;-79
2024/03/16 05:18:01;;;;;;;4.13;3.73;;;10.50;99.90;;;;;;5106085;27;20442;-78
2024/03/16 05:20:29;;;;;;;3.50;3.20;;;10.50;99.90;;;;;;5106144;27;20469;-79
2024/03/16 05:23:00;;;;;;;5.90;4.20;;;10.40;99.90;;;;;;5105740;27;20458;-78
2024/03/16 05:25:28;;;;;;;4.93;3.70;;;10.30;99.90;;;;;;5106268;27;20447;-79
2024/03/16 05:27:57;;;;;;;6.97;3.77;;;10.20;99.90;;;;;;5105543;27;20488;-78
2024/03/16 05:30:25;;;;;;;3.97;3.37;;;10.20;99.90;;;;;;5105470;27;20470;-79
2024/03/16 05:32:53;;;;;;;4.60;3.67;;;10.10;99.90;;;;;;5104825;27;20550;-80
2024/03/16 05:35:26;;;;;;;3.63;3.03;;;10.00;99.90;;;;;;5105523;27;20537;-78
2024/03/16 05:37:54;;;;;;;6.97;3.63;;;10.00;99.90;;;;;;5106309;27;20439;-79
2024/03/16 05:40:22;;;;;;;4.63;3.50;;;10.00;99.90;;;;;;5105397;27;20542;-78
2024/03/16 05:42:51;;;;;;;4.50;3.50;;;10.00;99.90;;;;;;5105351;27;20464;-79
2024/03/16 05:45:19;;;;;;;4.67;4.00;;;9.90;99.90;;;;;;5105184;27;20802;-78
2024/03/16 05:47:48;;;;;;;5.87;3.80;;;9.90;99.90;;;;;;5104938;27;20466;-79
2024/03/16 05:50:16;;;;;;;4.00;3.50;;;9.80;99.90;;;;;;5104808;27;20486;-78
2024/03/16 05:52:44;;;;;;;4.73;3.30;;;9.80;99.90;;;;;;5104298;27;20867;-79
2024/03/16 05:55:15;;;;;;;4.33;3.10;;;9.80;99.90;;;;;;5104550;27;20447;-78
2024/03/16 05:57:43;;;;;;;4.10;3.50;;;9.70;99.90;;;;;;5105711;27;20483;-78
2024/03/16 06:00:14;;;;;;;6.43;3.60;;;9.70;99.90;;;;;;5121312;27;20455;-79
2024/03/16 06:02:43;;;;;;;6.07;3.70;;;9.70;99.90;;;;;;5122415;27;20444;-78
2024/03/16 06:05:13;;;;;;;4.47;3.87;;;9.70;99.90;;;;;;5120916;27;20469;-79
2024/03/16 06:07:42;;;;;;;5.53;3.70;;;9.60;99.90;;;;;;5104371;27;20434;-79
2024/03/16 06:10:11;;;;;;;4.80;2.50;;;9.60;99.90;;;;;;5104195;27;20483;-79
2024/03/16 06:12:39;;;;;;;4.70;2.67;;;9.50;99.90;;;;;;5104117;27;20542;-79
2024/03/16 06:15:08;;;;;;;6.23;2.50;;;9.40;99.90;;;;;;5104344;27;20453;-79
2024/03/16 06:17:37;;;;;;;6.63;2.97;;;9.30;99.90;;;;;;5104369;27;20809;-79
2024/03/16 06:20:06;;;;;;;7.90;2.83;;;9.20;99.90;;;;;;5103515;27;20523;-79
2024/03/16 06:22:35;;;;;;;11.03;3.57;;;9.20;99.90;;;;;;5104181;27;20451;-80
2024/03/16 06:25:04;;;;;;;7.10;2.60;;;9.10;99.90;;;;;;5103899;27;20446;-78
2024/03/16 06:27:33;;;;;;;7.20;3.40;;;9.00;99.90;;;;;;5120431;27;20542;-79
2024/03/16 06:30:02;;;;;;;9.87;3.40;;;9.00;99.90;;;;;;5120573;27;20474;-79
2024/03/16 06:32:34;;;;;;;7.13;2.90;;;8.90;99.90;;;;;;5103613;27;20493;-80
2024/03/16 06:35:04;;;;;;;8.40;3.63;;;8.90;99.90;;;;;;5120794;27;20435;-79
2024/03/16 06:37:32;;;;;;;7.63;3.67;;;8.90;99.90;;;;;;5104076;27;20495;-79
2024/03/16 06:40:00;;;;;;;8.87;3.23;;;8.80;99.90;;;;;;5103072;27;20527;-79
2024/03/16 06:42:29;;;;;;;8.03;3.20;;;8.80;99.90;;;;;;5103236;27;20450;-78
2024/03/16 06:44:57;;;;;;;9.73;4.03;;;8.80;99.90;;;;;;5103445;27;20912;-79
2024/03/16 06:47:25;;;;;;;11.43;3.83;;;8.80;99.90;;;;;;5119710;27;20866;-78
2024/03/16 06:49:54;;;;;;;10.87;3.97;;;8.80;99.90;;;;;;5102630;27;20817;-78
2024/03/16 06:52:24;;;;;;;13.57;4.30;;;8.80;99.90;;;;;;5102887;27;20486;-79
2024/03/16 06:54:53;;;;;;;10.13;3.70;;;8.70;99.90;;;;;;5104315;27;20443;-79
2024/03/16 06:57:21;;;;;;;14.43;3.57;;;8.70;99.90;;;;;;5111053;27;20472;-79
2024/03/16 06:59:49;;;;;;;12.27;4.93;;;8.70;99.90;;;;;;5112991;27;20476;-79
2024/03/16 07:02:17;;;;;;;13.63;4.60;;;8.60;99.90;;;;;;5105032;27;20482;-79
2024/03/16 07:04:46;;;;;;;14.23;4.97;;;8.60;99.90;;;;;;5105057;27;20478;-79
2024/03/16 07:07:14;;;;;;;11.93;3.83;;;8.50;99.90;;;;;;5104827;27;20451;-79
2024/03/16 07:09:43;;;;;;;15.97;4.70;;;8.50;99.90;;;;;;5121553;27;20493;-78
2024/03/16 07:12:11;;;;;;;11.40;4.93;;;8.50;99.90;;;;;;5103880;27;20824;-80
2024/03/16 07:14:39;;;;;;;13.90;4.40;;;8.50;99.90;;;;;;5120107;27;20438;-77
2024/03/16 07:17:08;;;;;;;12.50;4.40;;;8.40;99.90;;;;;;5120682;27;20442;-78
2024/03/16 07:19:36;;;;;;;14.13;4.57;;;8.40;99.90;;;;;;5120424;27;20458;-80
2024/03/16 07:22:04;;;;;;;16.33;5.23;;;8.40;99.90;;;;;;5104977;27;20471;-80
2024/03/16 07:24:34;;;;;;;15.27;5.50;;;8.40;99.90;;;;;;5105580;27;20447;-79
2024/03/16 07:27:02;;;;;;;14.70;4.90;;;8.40;99.90;;;;;;5105013;27;20431;-79
2024/03/16 07:29:31;;;;;;;12.80;4.40;;;8.40;99.90;;;;;;5104981;27;20478;-80
2024/03/16 07:31:59;;;;;;;11.70;3.97;;;8.40;99.90;;;;;;5104664;27;20442;-80
2024/03/16 07:34:28;;;;;;;13.40;4.47;;;8.40;99.90;;;;;;5121681;27;20427;-80
2024/03/16 07:36:58;;;;;;;11.30;4.27;;;8.40;99.90;;;;;;5103957;27;20439;-78
2024/03/16 07:39:27;;;;;;;11.50;4.43;;;8.40;99.90;;;;;;5104978;27;20458;-79
2024/03/16 07:41:55;;;;;;;10.77;4.50;;;8.50;99.90;;;;;;5104236;27;20499;-79
2024/03/16 07:44:23;;;;;;;15.10;5.80;;;8.50;99.90;;;;;;5104143;27;20451;-80
2024/03/16 07:46:52;;;;;;;9.27;3.80;;;8.50;99.90;;;;;;5103882;27;20462;-79
2024/03/16 07:49:20;;;;;;;9.57;4.10;;;8.60;99.90;;;;;;5104075;27;20498;-80
2024/03/16 07:51:49;;;;;;;12.53;3.60;;;8.60;99.90;;;;;;5103723;27;20477;-80
2024/03/16 07:54:17;;;;;;;10.23;3.83;;;8.60;99.90;;;;;;5121633;27;20525;-80
2024/03/16 07:56:45;;;;;;;10.20;3.80;;;8.70;99.90;;;;;;5103284;27;20454;-77
2024/03/16 07:59:19;;;;;;;12.97;4.07;;;8.70;99.90;;;;;;5104651;28;20462;-79
2024/03/16 08:01:48;;;;;;;17.70;3.73;;;8.70;99.90;;;;;;5105484;28;20834;-80
2024/03/16 08:04:16;;;;;;;6.40;3.30;;;8.70;99.90;;;;;;5104176;28;20495;-80
2024/03/16 08:06:44;;;;;;;11.10;3.30;;;8.70;99.90;;;;;;5103658;28;20442;-78
2024/03/16 08:09:13;;;;;;;6.30;2.97;;;8.70;99.90;;;;;;5103871;28;20457;-78
2024/03/16 08:11:42;;;;;;;8.87;2.90;;;8.70;99.90;;;;;;5104010;28;20466;-78
2024/03/16 08:14:11;;;;;;;7.93;3.00;;;8.60;99.90;;;;;;5103428;28;20536;-78
2024/03/16 08:16:39;;;;;;;8.03;3.13;;;8.60;99.90;;;;;;5120813;28;20527;-79
2024/03/16 08:19:08;;;;;;;7.97;3.20;;;8.60;99.90;;;;;;5103979;28;20831;-79
2024/03/16 08:21:38;;;;;;;5.23;2.53;;;8.60;99.90;;;;;;5119735;28;20499;-78
2024/03/16 08:24:06;;;;;;;6.77;2.63;;;8.60;99.90;;;;;;5103921;28;20529;-77
2024/03/16 08:26:35;;;;;;;6.60;2.60;;;8.70;99.90;;;;;;5102387;28;20537;-78
2024/03/16 08:29:03;;;;;;;6.93;2.90;;;8.70;99.90;;;;;;5103503;28;20931;-79
2024/03/16 08:31:33;;;;;;;8.03;2.87;;;8.70;99.90;;;;;;5120361;28;20515;-79
2024/03/16 08:34:01;;;;;;;10.00;3.50;;;8.70;99.90;;;;;;5119747;28;20459;-80
2024/03/16 08:36:30;;;;;;;6.90;3.07;;;8.70;99.90;;;;;;5105203;28;20511;-80
2024/03/16 08:38:58;;;;;;;8.17;2.90;;;8.70;99.90;;;;;;5104734;28;20497;-80
2024/03/16 08:41:27;;;;;;;10.00;2.40;;;8.70;99.90;;;;;;5103634;28;21012;-81
2024/03/16 08:43:55;;;;;;;9.43;3.10;;;8.70;99.90;;;;;;5103633;28;20477;-80
2024/03/16 08:46:24;;;;;;;9.83;2.97;;;8.70;99.90;;;;;;5103365;28;20442;-80
2024/03/16 08:48:55;;;;;;;8.33;3.20;;;8.60;99.90;;;;;;5104241;28;20529;-81
2024/03/16 08:51:24;;;;;;;7.27;2.77;;;8.60;99.90;;;;;;5103084;28;20873;-81
2024/03/16 08:53:53;;;;;;;7.33;2.63;;;8.60;99.90;;;;;;5103481;28;21016;-80
2024/03/16 08:56:24;;;;;;;6.37;3.10;;;8.60;99.90;;;;;;5102796;28;20481;-81
2024/03/16 08:58:52;;;;;;;8.40;2.70;;;8.60;99.90;;;;;;5102466;28;20806;-79
2024/03/16 09:01:21;;;;;;;8.90;2.80;;;8.60;99.90;;;;;;5101137;28;21045;-79
2024/03/16 09:03:49;;;;;;;8.57;2.70;;;8.60;99.90;;;;;;5101778;28;20813;-80
2024/03/16 09:06:18;;;;;;;7.57;2.87;;;8.60;99.90;;;;;;5101206;28;20458;-79
2024/03/16 09:08:46;;;;;;;6.53;2.80;;;8.60;99.90;;;;;;5103675;27;20455;-80
2024/03/16 09:11:14;;;;;;;5.40;2.27;;;8.60;99.90;;;;;;5104921;27;20523;-80
2024/03/16 09:13:43;;;;;;;6.47;1.93;;;8.70;99.90;;;;;;5106526;27;20521;-81
2024/03/16 09:16:13;;;;;;;9.37;2.53;;;8.70;99.90;;;;;;5109101;27;20442;-81
2024/03/16 09:18:44;;;;;;;8.70;2.10;;;8.70;99.90;;;;;;5105834;27;20453;-80
2024/03/16 09:21:13;;;;;;;5.07;2.20;;;8.80;99.90;;;;;;5105285;27;20466;-80
2024/03/16 09:23:41;;;;;;;4.80;2.20;;;8.80;99.90;;;;;;5122043;27;20439;-81
2024/03/16 09:26:10;;;;;;;6.23;2.63;;;8.80;99.90;;;;;;5121673;27;20434;-80
2024/03/16 09:28:38;;;;;;;5.10;1.80;;;8.90;99.90;;;;;;5104359;27;20443;-81
2024/03/16 09:31:10;;;;;;;6.07;2.30;;;8.90;99.90;;;;;;5103950;27;21050;-80
2024/03/16 09:33:38;;;;;;;8.00;2.10;;;8.90;99.90;;;;;;5104906;27;20438;-80
2024/03/16 09:36:07;;;;;;;6.30;2.10;;;9.00;99.90;;;;;;5104316;27;20485;-80
2024/03/16 09:38:36;;;;;;;4.13;1.73;;;9.00;99.90;;;;;;5104679;27;20483;-80
2024/03/16 09:41:04;;;;;;;5.80;2.43;;;9.00;99.90;;;;;;5121485;27;20982;-78
2024/03/16 09:43:34;;;;;;;4.90;1.70;;;9.10;99.90;;;;;;5104134;27;20451;-79
2024/03/16 09:46:01;;;;;;;6.70;2.37;;;9.10;99.90;;;;;;5104045;27;20851;-81
2024/03/16 09:48:29;;;;;;;4.17;1.80;;;9.10;99.90;;;;;;5103433;27;20468;-78
2024/03/16 09:50:56;;;;;;;7.57;2.43;;;9.10;99.90;;;;;;5120462;27;20481;-81
2024/03/16 09:53:31;;;;;;;5.50;2.27;;;9.10;99.90;;;;;;5103720;27;20813;-78
2024/03/16 09:55:59;;;;;;;6.33;2.30;;;9.20;99.90;;;;;;5105732;27;20782;-81
2024/03/16 09:58:28;;;;;;;3.70;1.60;;;9.20;99.90;;;;;;5104857;27;20450;-81
2024/03/16 10:00:55;;;;;;;4.37;1.70;;;9.20;99.90;;;;;;5106233;27;20967;-78
2024/03/16 10:03:22;;;;;;;7.23;1.93;;;9.30;99.90;;;;;;5089346;27;20539;-79
2024/03/16 10:05:50;;;;;;;6.13;1.93;;;9.20;99.90;;;;;;5102808;27;20453;-78
2024/03/16 10:08:18;;;;;;;3.90;1.70;;;9.20;99.90;;;;;;5103117;27;20443;-81
2024/03/16 10:10:46;;;;;;;4.20;1.50;;;9.20;99.90;;;;;;5102788;27;20478;-80
2024/03/16 10:13:14;;;;;;;4.77;1.77;;;9.20;99.90;;;;;;5120649;27;20474;-81
2024/03/16 10:15:42;;;;;;;4.53;1.80;;;9.20;99.90;;;;;;5102481;27;20517;-80
2024/03/16 10:18:11;;;;;;;6.83;2.30;;;9.20;99.90;;;;;;5102306;27;20434;-80
2024/03/16 10:20:39;;;;;;;5.60;1.93;;;9.20;99.90;;;;;;5086561;27;20530;-81
2024/03/16 10:23:07;;;;;;;8.47;2.03;;;9.20;99.90;;;;;;5087608;27;20442;-81
2024/03/16 10:25:34;;;;;;;8.80;2.83;;;9.20;99.90;;;;;;5103902;27;20449;-78
2024/03/16 10:28:01;;;;;;;7.97;2.57;;;9.30;99.90;;;;;;5103677;27;20814;-81
2024/03/16 10:30:29;;;;;;;4.93;1.87;;;9.30;99.90;;;;;;5103584;27;20824;-81
2024/03/16 10:32:57;;;;;;;9.20;2.00;;;9.30;99.90;;;;;;5104198;27;20453;-81
2024/03/16 10:35:33;;;;;;;7.10;1.93;;;9.40;99.90;;;;;;5103630;27;20442;-80
2024/03/16 10:38:00;;;;;;;6.33;2.10;;;9.50;99.90;;;;;;5088716;27;20510;-80
2024/03/16 10:40:28;;;;;;;7.30;2.27;;;9.60;99.90;;;;;;5103126;27;20462;-81
2024/03/16 10:42:58;;;;;;;3.40;1.20;;;9.70;99.90;;;;;;5102636;27;20569;-81
2024/03/16 10:45:30;;;;;;;3.87;1.83;;;9.80;99.90;;;;;;5104369;27;20433;-81
2024/03/16 10:48:02;;;;;;;5.40;1.80;;;9.90;99.90;;;;;;5104194;27;20475;-81
2024/03/16 10:50:30;;;;;;;5.33;1.70;;;9.90;99.90;;;;;;5103120;27;20470;-81
2024/03/16 10:52:57;;;;;;;6.47;1.73;;;10.00;99.90;;;;;;5120065;27;20956;-81
2024/03/16 10:55:25;;;;;;;3.00;1.60;;;10.10;99.90;;;;;;5120197;27;20446;-80
2024/03/16 10:57:53;;;;;;;4.47;1.50;;;10.10;99.90;;;;;;5102574;27;20534;-81
2024/03/16 11:00:34;;;;;;;4.50;1.60;;;10.10;99.90;;;;;;5102580;27;20454;-80
2024/03/16 11:03:01;;;;;;;5.50;1.50;;;10.10;99.90;;;;;;5102989;27;20431;-80
2024/03/16 11:05:36;;;;;;;4.27;1.90;;;10.10;99.90;;;;;;5085299;27;20957;-80
2024/03/16 11:08:23;;;;;;;5.00;2.00;;;10.10;99.90;;;;;;5102552;27;20441;-81
2024/03/16 11:10:52;;;;;;;6.30;2.20;;;10.10;99.90;;;;;;5086150;27;20465;-81
2024/03/16 11:13:23;;;;;;;9.37;1.93;;;10.00;99.90;;;;;;5086024;27;20446;-80
2024/03/16 11:15:51;;;;;;;6.07;2.00;;;10.00;99.90;;;;;;5085895;27;20438;-80
2024/03/16 11:18:43;;;;;;;5.50;2.10;;;10.10;99.90;;;;;;5102232;27;20443;-79
2024/03/16 11:21:17;;;;;;;5.33;1.70;;;10.10;99.90;;;;;;5102351;27;20461;-80
2024/03/16 11:23:44;;;;;;;5.17;1.80;;;10.10;99.90;;;;;;5102128;27;21006;-80
2024/03/16 11:26:34;;;;;;;5.27;1.70;;;10.20;99.90;;;;;;5084892;27;20514;-81
2024/03/16 11:29:08;;;;;;;5.43;1.63;;;10.20;99.90;;;;;;5102272;27;20427;-81
2024/03/16 11:31:39;;;;;;;4.30;1.53;;;10.30;99.90;;;;;;5102116;27;20458;-80
2024/03/16 11:34:09;;;;;;;7.83;2.43;;;10.30;99.90;;;;;;5103920;27;20443;-82
2024/03/16 11:36:38;;;;;;;8.70;2.27;;;10.30;99.90;;;;;;5119459;27;20430;-81
2024/03/16 11:39:11;;;;;;;5.50;2.10;;;10.40;99.90;;;;;;5103251;27;20447;-80
2024/03/16 11:41:48;;;;;;;5.70;2.10;;;10.40;99.90;;;;;;5103965;27;20427;-81
2024/03/16 11:44:15;;;;;;;6.07;2.00;;;10.30;99.90;;;;;;5085819;27;20431;-80
2024/03/16 11:46:42;;;;;;;4.77;1.93;;;10.30;99.90;;;;;;5084510;28;20455;-81
2024/03/16 11:49:14;;;;;;;6.63;2.00;;;10.30;99.90;;;;;;5101825;27;20509;-81
2024/03/16 11:51:41;;;;;;;5.07;2.43;;;10.30;99.90;;;;;;5084843;28;20844;-79
2024/03/16 11:54:10;;;;;;;5.97;2.20;;;10.30;99.90;;;;;;5101303;27;20511;-80
2024/03/16 11:56:36;;;;;;;3.50;2.17;;;10.30;99.90;;;;;;5118799;27;20442;-79
2024/03/16 12:02:11;;;;;;;5.27;2.30;;;10.40;99.90;;;;;;5075948;23;20882;-92
2024/03/16 12:04:43;;;;;;;6.67;1.93;;;10.40;99.90;;;;;;4877807;29;20444;-92
2024/03/16 12:07:10;;;;;;;4.70;2.10;;;10.40;99.90;;;;;;4894751;29;20440;-92
2024/03/16 12:09:43;;;;;;;5.13;2.47;;;10.50;99.90;;;;;;4879703;29;20533;-92
2024/03/16 12:12:10;;;;;;;6.00;2.30;;;10.50;99.90;;;;;;4889055;29;20477;-92
2024/03/16 12:14:39;;;;;;;6.63;2.30;;;10.60;99.90;;;;;;4873820;29;20457;-92
2024/03/16 12:17:09;;;;;;;4.23;1.60;;;10.70;99.90;;;;;;4857405;29;20493;-92
2024/03/16 12:19:47;;;;;;;5.60;1.67;;;10.80;99.90;;;;;;4857870;29;20454;-93
2024/03/16 12:22:15;;;;;;;5.50;2.27;;;10.90;99.90;;;;;;4842824;29;20469;-92
2024/03/16 12:24:43;;;;;;;6.33;2.00;;;10.90;99.90;;;;;;4858402;29;20457;-92
2024/03/16 12:27:12;;;;;;;7.07;1.73;;;11.00;99.90;;;;;;4876696;29;20489;-92
2024/03/16 12:29:43;;;;;;;6.80;2.23;;;11.00;99.90;;;;;;4860083;29;20509;-92
2024/03/16 12:32:10;;;;;;;8.23;2.10;;;10.90;99.90;;;;;;4873861;29;20584;-93
2024/03/16 12:34:39;;;;;;;7.30;2.90;;;10.90;99.90;;;;;;4857042;29;20521;-92
2024/03/16 12:37:07;;;;;;;6.67;1.93;;;10.90;99.90;;;;;;4857071;29;20554;-92
2024/03/16 12:39:38;;;;;;;4.87;2.10;;;10.90;99.90;;;;;;4857483;29;20556;-92
2024/03/16 12:42:06;;;;;;;9.07;2.40;;;10.90;99.90;;;;;;4873787;29;20983;-93
2024/03/16 12:44:39;;;;;;;8.17;2.07;;;10.90;99.90;;;;;;4877669;29;20528;-93
2024/03/16 12:47:07;;;;;;;7.10;1.83;;;11.00;99.90;;;;;;4880325;29;20456;-93
2024/03/16 12:49:42;;;;;;;7.10;2.60;;;11.00;99.90;;;;;;4861268;29;20461;-93
2024/03/16 12:52:13;;;;;;;5.30;1.93;;;11.00;99.90;;;;;;4880629;29;20477;-93
2024/03/16 12:54:56;;;;;;;5.50;1.93;;;11.20;99.90;;;;;;4868671;29;20447;-93